Terminal Aerodrome Forecast
Issued by NWS Upton, NY

Home | Current Version | Previous Version | Text Only | Print | Product List | Glossary On
Versions: 1 2 3 4 5 6 7 8 9 10 11 12 13 14 15 16 17 18 19 20 21 22 23 24 25 26 27 28 29 30 31 32 33 34 35 36 37 38 39
000
FTUS41 KOKX 191730
TAFJFK
TAF
KJFK 191730Z 1918/2024 21013KT P6SM SCT050 BKN250
     FM200300 27008KT P6SM FEW250
     FM200900 32007KT P6SM FEW250
     FM201800 27010KT P6SM FEW040 FEW250
     FM202200 24010KT P6SM FEW040 FEW250=

USA.gov is the U.S. government's official web portal to all federal, state and local government web resources and services.